RJFR/KKJ METAR and TAF weather

Enter ICAO airport designator
Station Type Date Time Source
RJFR METAR 2020/09/27 15:00 UTC NOAA

RJFR 271500Z 02019KT 9999 FEW030 20/13 Q1015


Station Type Date Time Source
RJFR Decoded METAR 2020/09/27 15:00 UTC NOAA

Kitakyushu Airport, Japan (RJFR) 33-50N 130-57E 6M
Sep 27, 2020 - 11:00 AM EDT / 2020.09.27 1500 UTC
Wind: from the NNE (020 degrees) at 22 MPH (19 KT):0
Visibility: greater than 7 mile(s):0
Sky conditions: mostly clear
Temperature: 68 F (20 C)
Dew Point: 55 F (13 C)
Relative Humidity: 64%
Pressure (altimeter): 29.97 in. Hg (1015 hPa)
ob: RJFR 271500Z 02019KT 9999 FEW030 20/13 Q1015
cycle: 15

Station Type Date Time Source
RJFR TAF 2020/09/27 12:30 UTC NOAA

TAF RJFR 271107Z 2712/2818 02013KT 9999 FEW030
BECMG 2800/2803 14006KT
BECMG 2806/2809 03011KT

Example: see airport list